sensor_id;sensor_type;location;lat;lon;timestamp;temperature;humidity
21403;DHT22;10862;51.886;17.078;2024-03-08T00:00:10;0.00;1.00
21403;DHT22;10862;51.886;17.078;2024-03-08T00:02:43;0.00;1.00
21403;DHT22;10862;51.886;17.078;2024-03-08T00:05:09;0.00;1.00
21403;DHT22;10862;51.886;17.078;2024-03-08T00:07:35;0.30;1.00
21403;DHT22;10862;51.886;17.078;2024-03-08T00:10:01;0.20;1.00
21403;DHT22;10862;51.886;17.078;2024-03-08T00:12:27;0.30;1.00
21403;DHT22;10862;51.886;17.078;2024-03-08T00:14:53;0.40;1.00
21403;DHT22;10862;51.886;17.078;2024-03-08T00:17:20;0.30;1.00
21403;DHT22;10862;51.886;17.078;2024-03-08T00:19:45;0.20;1.00
21403;DHT22;10862;51.886;17.078;2024-03-08T00:22:11;0.20;1.00
21403;DHT22;10862;51.886;17.078;2024-03-08T00:24:36;0.20;1.00
21403;DHT22;10862;51.886;17.078;2024-03-08T00:27:02;0.20;1.00
21403;DHT22;10862;51.886;17.078;2024-03-08T00:29:30;0.40;63.40
21403;DHT22;10862;51.886;17.078;2024-03-08T00:31:55;0.40;1.00
21403;DHT22;10862;51.886;17.078;2024-03-08T00:34:20;0.40;1.00
21403;DHT22;10862;51.886;17.078;2024-03-08T00:36:46;0.50;1.00
21403;DHT22;10862;51.886;17.078;2024-03-08T00:39:11;0.50;99.90
21403;DHT22;10862;51.886;17.078;2024-03-08T00:41:37;0.20;99.90
21403;DHT22;10862;51.886;17.078;2024-03-08T00:44:02;0.10;35.90
21403;DHT22;10862;51.886;17.078;2024-03-08T00:46:30;0.30;99.90
21403;DHT22;10862;51.886;17.078;2024-03-08T00:48:56;0.30;99.90
21403;DHT22;10862;51.886;17.078;2024-03-08T00:51:22;0.30;99.90
21403;DHT22;10862;51.886;17.078;2024-03-08T00:53:47;0.50;99.90
21403;DHT22;10862;51.886;17.078;2024-03-08T00:56:13;0.60;99.90
21403;DHT22;10862;51.886;17.078;2024-03-08T00:58:38;0.10;1.00
21403;DHT22;10862;51.886;17.078;2024-03-08T01:01:04;-0.30;1.00
21403;DHT22;10862;51.886;17.078;2024-03-08T01:03:30;-0.50;99.90
21403;DHT22;10862;51.886;17.078;2024-03-08T01:05:58;0.70;99.90
21403;DHT22;10862;51.886;17.078;2024-03-08T01:08:26;-0.40;1.00
21403;DHT22;10862;51.886;17.078;2024-03-08T01:10:52;-0.20;1.00
21403;DHT22;10862;51.886;17.078;2024-03-08T01:13:18;-0.10;99.90
21403;DHT22;10862;51.886;17.078;2024-03-08T01:15:44;0.00;99.90
21403;DHT22;10862;51.886;17.078;2024-03-08T01:18:10;-0.10;1.00
21403;DHT22;10862;51.886;17.078;2024-03-08T01:20:35;-0.10;46.50
21403;DHT22;10862;51.886;17.078;2024-03-08T01:23:01;0.00;99.90
21403;DHT22;10862;51.886;17.078;2024-03-08T01:25:26;0.00;99.90
21403;DHT22;10862;51.886;17.078;2024-03-08T01:27:52;1.10;99.90
21403;DHT22;10862;51.886;17.078;2024-03-08T01:30:19;0.10;99.90
21403;DHT22;10862;51.886;17.078;2024-03-08T01:32:45;0.30;99.90
21403;DHT22;10862;51.886;17.078;2024-03-08T01:35:10;0.10;99.90
21403;DHT22;10862;51.886;17.078;2024-03-08T01:37:36;-0.10;99.90
21403;DHT22;10862;51.886;17.078;2024-03-08T01:40:02;0.10;1.00
21403;DHT22;10862;51.886;17.078;2024-03-08T01:42:28;0.00;1.00
21403;DHT22;10862;51.886;17.078;2024-03-08T01:44:54;0.00;1.00
21403;DHT22;10862;51.886;17.078;2024-03-08T01:47:20;0.10;1.00
21403;DHT22;10862;51.886;17.078;2024-03-08T01:49:51;0.10;1.00
21403;DHT22;10862;51.886;17.078;2024-03-08T01:52:17;-0.10;1.00
21403;DHT22;10862;51.886;17.078;2024-03-08T01:54:47;-0.10;1.00
21403;DHT22;10862;51.886;17.078;2024-03-08T01:57:13;0.00;1.00
21403;DHT22;10862;51.886;17.078;2024-03-08T01:59:40;0.00;1.00
21403;DHT22;10862;51.886;17.078;2024-03-08T02:02:06;-0.10;1.00
21403;DHT22;10862;51.886;17.078;2024-03-08T02:04:34;-0.20;99.90
21403;DHT22;10862;51.886;17.078;2024-03-08T02:06:59;-0.20;99.90
21403;DHT22;10862;51.886;17.078;2024-03-08T02:09:25;-0.30;1.00
21403;DHT22;10862;51.886;17.078;2024-03-08T02:11:51;-0.20;1.00
21403;DHT22;10862;51.886;17.078;2024-03-08T02:14:17;0.10;1.00
21403;DHT22;10862;51.886;17.078;2024-03-08T02:16:42;0.30;99.90
21403;DHT22;10862;51.886;17.078;2024-03-08T02:19:08;0.30;1.00
21403;DHT22;10862;51.886;17.078;2024-03-08T02:21:35;0.40;1.00
21403;DHT22;10862;51.886;17.078;2024-03-08T02:24:01;0.30;99.90
21403;DHT22;10862;51.886;17.078;2024-03-08T02:26:27;0.30;99.90
21403;DHT22;10862;51.886;17.078;2024-03-08T02:28:52;0.40;1.00
21403;DHT22;10862;51.886;17.078;2024-03-08T02:31:18;0.40;99.90
21403;DHT22;10862;51.886;17.078;2024-03-08T02:33:43;0.40;99.90
21403;DHT22;10862;51.886;17.078;2024-03-08T02:36:08;0.30;58.10
21403;DHT22;10862;51.886;17.078;2024-03-08T02:38:34;-0.30;99.90
21403;DHT22;10862;51.886;17.078;2024-03-08T02:40:59;0.10;99.90
21403;DHT22;10862;51.886;17.078;2024-03-08T02:43:25;-0.10;99.90
21403;DHT22;10862;51.886;17.078;2024-03-08T02:45:50;-0.20;1.00
21403;DHT22;10862;51.886;17.078;2024-03-08T02:48:18;-0.20;1.00
21403;DHT22;10862;51.886;17.078;2024-03-08T02:50:43;-0.10;54.60
21403;DHT22;10862;51.886;17.078;2024-03-08T02:53:10;0.00;99.90
21403;DHT22;10862;51.886;17.078;2024-03-08T02:55:36;-0.20;1.00
21403;DHT22;10862;51.886;17.078;2024-03-08T02:58:02;-0.40;9.30
21403;DHT22;10862;51.886;17.078;2024-03-08T03:00:28;-0.40;99.90
21403;DHT22;10862;51.886;17.078;2024-03-08T03:02:56;-0.20;1.00
21403;DHT22;10862;51.886;17.078;2024-03-08T03:05:22;-0.40;99.90
21403;DHT22;10862;51.886;17.078;2024-03-08T03:07:48;-0.40;99.90
21403;DHT22;10862;51.886;17.078;2024-03-08T03:10:14;-0.60;1.00
21403;DHT22;10862;51.886;17.078;2024-03-08T03:12:42;-0.40;99.90
21403;DHT22;10862;51.886;17.078;2024-03-08T03:15:07;-0.30;99.90
21403;DHT22;10862;51.886;17.078;2024-03-08T03:17:33;-0.10;99.90
21403;DHT22;10862;51.886;17.078;2024-03-08T03:19:58;0.00;1.00
21403;DHT22;10862;51.886;17.078;2024-03-08T03:22:24;0.10;99.90
21403;DHT22;10862;51.886;17.078;2024-03-08T03:24:50;-0.40;1.00
21403;DHT22;10862;51.886;17.078;2024-03-08T03:27:17;-0.90;1.00
21403;DHT22;10862;51.886;17.078;2024-03-08T03:29:42;-0.70;35.40
21403;DHT22;10862;51.886;17.078;2024-03-08T03:32:11;-0.70;99.90
21403;DHT22;10862;51.886;17.078;2024-03-08T03:34:37;-0.90;99.90
21403;DHT22;10862;51.886;17.078;2024-03-08T03:37:03;-1.10;99.90
21403;DHT22;10862;51.886;17.078;2024-03-08T03:39:29;-0.90;1.00
21403;DHT22;10862;51.886;17.078;2024-03-08T03:41:57;-0.90;99.90
21403;DHT22;10862;51.886;17.078;2024-03-08T03:44:22;-1.00;99.90
21403;DHT22;10862;51.886;17.078;2024-03-08T03:46:49;-0.90;1.00
21403;DHT22;10862;51.886;17.078;2024-03-08T03:49:16;-0.90;1.00
21403;DHT22;10862;51.886;17.078;2024-03-08T03:51:42;-1.10;1.00
21403;DHT22;10862;51.886;17.078;2024-03-08T03:54:07;-1.30;1.00
21403;DHT22;10862;51.886;17.078;2024-03-08T03:56:33;-1.40;1.00
21403;DHT22;10862;51.886;17.078;2024-03-08T03:58:58;-1.10;99.90
21403;DHT22;10862;51.886;17.078;2024-03-08T04:01:24;-0.80;99.90
21403;DHT22;10862;51.886;17.078;2024-03-08T04:03:49;-0.80;1.00
21403;DHT22;10862;51.886;17.078;2024-03-08T04:06:15;-0.80;1.00
21403;DHT22;10862;51.886;17.078;2024-03-08T04:08:40;-0.10;99.90
21403;DHT22;10862;51.886;17.078;2024-03-08T04:11:07;-0.50;1.00
21403;DHT22;10862;51.886;17.078;2024-03-08T04:13:34;-0.90;1.00
21403;DHT22;10862;51.886;17.078;2024-03-08T04:15:59;-1.10;1.00
21403;DHT22;10862;51.886;17.078;2024-03-08T04:18:25;-1.50;1.00
21403;DHT22;10862;51.886;17.078;2024-03-08T04:20:52;-1.70;99.90
21403;DHT22;10862;51.886;17.078;2024-03-08T04:23:17;-1.70;1.00
21403;DHT22;10862;51.886;17.078;2024-03-08T04:25:43;-1.70;92.70
21403;DHT22;10862;51.886;17.078;2024-03-08T04:28:09;-1.70;99.90
21403;DHT22;10862;51.886;17.078;2024-03-08T04:30:40;-1.40;1.00
21403;DHT22;10862;51.886;17.078;2024-03-08T04:33:06;-1.40;99.90
21403;DHT22;10862;51.886;17.078;2024-03-08T04:35:32;-1.60;1.00
21403;DHT22;10862;51.886;17.078;2024-03-08T04:37:58;-1.70;1.00
21403;DHT22;10862;51.886;17.078;2024-03-08T04:40:24;-2.20;1.00
21403;DHT22;10862;51.886;17.078;2024-03-08T04:42:50;-2.20;1.00
21403;DHT22;10862;51.886;17.078;2024-03-08T04:45:17;-1.50;99.90
21403;DHT22;10862;51.886;17.078;2024-03-08T04:47:42;-2.30;99.90
21403;DHT22;10862;51.886;17.078;2024-03-08T04:50:08;-2.30;1.00
21403;DHT22;10862;51.886;17.078;2024-03-08T04:52:34;-2.40;99.90
21403;DHT22;10862;51.886;17.078;2024-03-08T04:55:01;-2.50;1.00
21403;DHT22;10862;51.886;17.078;2024-03-08T04:57:29;-1.80;1.00
21403;DHT22;10862;51.886;17.078;2024-03-08T04:59:55;-2.00;1.00
21403;DHT22;10862;51.886;17.078;2024-03-08T05:02:20;-2.00;99.90
21403;DHT22;10862;51.886;17.078;2024-03-08T05:04:48;-2.20;1.00
21403;DHT22;10862;51.886;17.078;2024-03-08T05:07:13;-2.20;1.00
21403;DHT22;10862;51.886;17.078;2024-03-08T05:09:39;-1.50;1.00
21403;DHT22;10862;51.886;17.078;2024-03-08T05:12:06;-2.40;1.00
21403;DHT22;10862;51.886;17.078;2024-03-08T05:14:32;-1.90;99.90
21403;DHT22;10862;51.886;17.078;2024-03-08T05:16:57;-2.50;99.90
21403;DHT22;10862;51.886;17.078;2024-03-08T05:19:23;-2.40;1.00
21403;DHT22;10862;51.886;17.078;2024-03-08T05:21:49;-2.40;1.00
21403;DHT22;10862;51.886;17.078;2024-03-08T05:24:15;-2.40;1.00
21403;DHT22;10862;51.886;17.078;2024-03-08T05:26:41;-2.30;99.90
21403;DHT22;10862;51.886;17.078;2024-03-08T05:29:07;-2.10;1.00
21403;DHT22;10862;51.886;17.078;2024-03-08T05:31:48;-2.30;1.00
21403;DHT22;10862;51.886;17.078;2024-03-08T05:34:14;-2.30;1.00
21403;DHT22;10862;51.886;17.078;2024-03-08T05:36:41;-2.80;1.00
21403;DHT22;10862;51.886;17.078;2024-03-08T05:39:08;-1.90;1.00
21403;DHT22;10862;51.886;17.078;2024-03-08T05:41:36;-1.60;99.90
21403;DHT22;10862;51.886;17.078;2024-03-08T05:44:02;-2.00;1.00
21403;DHT22;10862;51.886;17.078;2024-03-08T05:46:28;-1.70;1.00
21403;DHT22;10862;51.886;17.078;2024-03-08T05:48:53;-1.50;1.00
21403;DHT22;10862;51.886;17.078;2024-03-08T05:51:20;-1.70;1.00
21403;DHT22;10862;51.886;17.078;2024-03-08T05:53:47;-0.80;99.90
21403;DHT22;10862;51.886;17.078;2024-03-08T05:56:12;-1.10;99.90
21403;DHT22;10862;51.886;17.078;2024-03-08T05:58:38;-0.90;1.00
21403;DHT22;10862;51.886;17.078;2024-03-08T06:01:03;-0.70;99.90
21403;DHT22;10862;51.886;17.078;2024-03-08T06:03:33;-0.70;1.00
21403;DHT22;10862;51.886;17.078;2024-03-08T06:05:59;-0.50;1.00
21403;DHT22;10862;51.886;17.078;2024-03-08T06:08:24;-0.70;99.90
21403;DHT22;10862;51.886;17.078;2024-03-08T06:10:55;-0.80;99.90
21403;DHT22;10862;51.886;17.078;2024-03-08T06:13:21;-0.60;1.00
21403;DHT22;10862;51.886;17.078;2024-03-08T06:15:47;-0.50;99.90
21403;DHT22;10862;51.886;17.078;2024-03-08T06:18:12;-0.40;99.90
21403;DHT22;10862;51.886;17.078;2024-03-08T06:20:38;-0.30;1.00
21403;DHT22;10862;51.886;17.078;2024-03-08T06:23:03;-0.10;1.00
21403;DHT22;10862;51.886;17.078;2024-03-08T06:25:29;0.00;99.90
21403;DHT22;10862;51.886;17.078;2024-03-08T06:27:55;0.00;1.00
21403;DHT22;10862;51.886;17.078;2024-03-08T06:30:20;0.00;1.00
21403;DHT22;10862;51.886;17.078;2024-03-08T06:32:46;0.30;1.00
21403;DHT22;10862;51.886;17.078;2024-03-08T06:35:12;0.10;1.00
21403;DHT22;10862;51.886;17.078;2024-03-08T06:37:37;0.30;1.00
21403;DHT22;10862;51.886;17.078;2024-03-08T06:40:03;0.30;99.90
21403;DHT22;10862;51.886;17.078;2024-03-08T06:42:29;0.50;1.00
21403;DHT22;10862;51.886;17.078;2024-03-08T06:44:59;0.50;99.90
21403;DHT22;10862;51.886;17.078;2024-03-08T06:47:29;0.50;99.90
21403;DHT22;10862;51.886;17.078;2024-03-08T06:49:55;0.50;1.00
21403;DHT22;10862;51.886;17.078;2024-03-08T06:52:21;0.70;5.00
21403;DHT22;10862;51.886;17.078;2024-03-08T06:54:47;0.90;99.90
21403;DHT22;10862;51.886;17.078;2024-03-08T06:57:13;0.80;99.90
21403;DHT22;10862;51.886;17.078;2024-03-08T06:59:39;1.10;99.90
21403;DHT22;10862;51.886;17.078;2024-03-08T07:02:05;1.20;1.00
21403;DHT22;10862;51.886;17.078;2024-03-08T07:04:34;1.20;1.00
21403;DHT22;10862;51.886;17.078;2024-03-08T07:07:03;1.20;1.00
21403;DHT22;10862;51.886;17.078;2024-03-08T07:09:29;2.00;99.90
21403;DHT22;10862;51.886;17.078;2024-03-08T07:11:54;1.30;1.00
21403;DHT22;10862;51.886;17.078;2024-03-08T07:14:24;1.50;99.90
21403;DHT22;10862;51.886;17.078;2024-03-08T07:16:50;1.40;99.90
21403;DHT22;10862;51.886;17.078;2024-03-08T07:19:16;1.40;99.90
21403;DHT22;10862;51.886;17.078;2024-03-08T07:21:45;1.60;99.90
21403;DHT22;10862;51.886;17.078;2024-03-08T07:24:12;1.80;99.90
21403;DHT22;10862;51.886;17.078;2024-03-08T07:27:05;1.60;1.00
21403;DHT22;10862;51.886;17.078;2024-03-08T07:29:33;1.60;1.00
21403;DHT22;10862;51.886;17.078;2024-03-08T07:32:02;1.60;1.00
21403;DHT22;10862;51.886;17.078;2024-03-08T07:34:47;1.60;1.00
21403;DHT22;10862;51.886;17.078;2024-03-08T07:37:13;1.80;1.00
21403;DHT22;10862;51.886;17.078;2024-03-08T07:39:39;1.90;1.00
21403;DHT22;10862;51.886;17.078;2024-03-08T07:42:05;2.00;1.00
21403;DHT22;10862;51.886;17.078;2024-03-08T07:44:30;2.10;1.00
21403;DHT22;10862;51.886;17.078;2024-03-08T07:46:57;2.10;1.00
21403;DHT22;10862;51.886;17.078;2024-03-08T07:49:24;2.20;1.00
21403;DHT22;10862;51.886;17.078;2024-03-08T07:51:49;2.10;1.00
21403;DHT22;10862;51.886;17.078;2024-03-08T07:54:15;2.10;1.00
21403;DHT22;10862;51.886;17.078;2024-03-08T07:56:41;2.10;1.00
21403;DHT22;10862;51.886;17.078;2024-03-08T07:59:07;2.20;1.00
21403;DHT22;10862;51.886;17.078;2024-03-08T08:01:33;2.10;1.00
21403;DHT22;10862;51.886;17.078;2024-03-08T08:03:59;2.10;1.00
21403;DHT22;10862;51.886;17.078;2024-03-08T08:06:26;2.20;99.90
21403;DHT22;10862;51.886;17.078;2024-03-08T08:08:52;2.40;1.00
21403;DHT22;10862;51.886;17.078;2024-03-08T08:11:17;2.40;1.00
21403;DHT22;10862;51.886;17.078;2024-03-08T08:13:43;2.60;99.90
21403;DHT22;10862;51.886;17.078;2024-03-08T08:16:09;2.70;99.90
21403;DHT22;10862;51.886;17.078;2024-03-08T08:18:35;2.80;99.90
21403;DHT22;10862;51.886;17.078;2024-03-08T08:21:02;2.70;99.90
21403;DHT22;10862;51.886;17.078;2024-03-08T08:23:28;2.90;99.90
21403;DHT22;10862;51.886;17.078;2024-03-08T08:25:54;3.00;99.90
21403;DHT22;10862;51.886;17.078;2024-03-08T08:28:21;3.20;99.90
21403;DHT22;10862;51.886;17.078;2024-03-08T08:30:46;3.40;99.90
21403;DHT22;10862;51.886;17.078;2024-03-08T08:33:12;3.50;99.90
21403;DHT22;10862;51.886;17.078;2024-03-08T08:35:38;3.70;99.90
21403;DHT22;10862;51.886;17.078;2024-03-08T08:38:07;3.80;99.90
21403;DHT22;10862;51.886;17.078;2024-03-08T08:40:33;4.10;99.90
21403;DHT22;10862;51.886;17.078;2024-03-08T08:42:59;4.90;99.90
21403;DHT22;10862;51.886;17.078;2024-03-08T08:45:25;5.20;99.90
21403;DHT22;10862;51.886;17.078;2024-03-08T08:47:51;5.40;99.90
21403;DHT22;10862;51.886;17.078;2024-03-08T08:50:17;5.80;99.90
21403;DHT22;10862;51.886;17.078;2024-03-08T08:52:49;5.90;1.00
21403;DHT22;10862;51.886;17.078;2024-03-08T08:55:14;6.30;5.20
21403;DHT22;10862;51.886;17.078;2024-03-08T08:57:40;6.90;1.00
21403;DHT22;10862;51.886;17.078;2024-03-08T09:00:07;7.30;99.90
21403;DHT22;10862;51.886;17.078;2024-03-08T09:02:36;7.10;99.90
21403;DHT22;10862;51.886;17.078;2024-03-08T09:05:03;7.30;1.00
21403;DHT22;10862;51.886;17.078;2024-03-08T09:07:29;6.50;99.90
21403;DHT22;10862;51.886;17.078;2024-03-08T09:09:54;7.20;99.90
21403;DHT22;10862;51.886;17.078;2024-03-08T09:12:23;7.90;99.90
21403;DHT22;10862;51.886;17.078;2024-03-08T09:14:49;8.70;1.00
21403;DHT22;10862;51.886;17.078;2024-03-08T09:17:15;8.60;1.00
21403;DHT22;10862;51.886;17.078;2024-03-08T09:19:46;8.80;99.90
21403;DHT22;10862;51.886;17.078;2024-03-08T09:22:13;8.70;99.90
21403;DHT22;10862;51.886;17.078;2024-03-08T09:24:38;9.20;99.90
21403;DHT22;10862;51.886;17.078;2024-03-08T09:27:04;9.50;1.00
21403;DHT22;10862;51.886;17.078;2024-03-08T09:29:30;9.40;1.00
21403;DHT22;10862;51.886;17.078;2024-03-08T09:31:56;8.90;1.00
21403;DHT22;10862;51.886;17.078;2024-03-08T09:34:21;8.90;99.90
21403;DHT22;10862;51.886;17.078;2024-03-08T09:36:47;9.10;99.90
21403;DHT22;10862;51.886;17.078;2024-03-08T09:39:12;9.90;1.00
21403;DHT22;10862;51.886;17.078;2024-03-08T09:41:45;9.50;99.90
21403;DHT22;10862;51.886;17.078;2024-03-08T09:44:14;10.20;1.00
21403;DHT22;10862;51.886;17.078;2024-03-08T09:46:40;11.00;99.90
21403;DHT22;10862;51.886;17.078;2024-03-08T09:49:06;10.20;1.00
21403;DHT22;10862;51.886;17.078;2024-03-08T09:51:34;10.10;1.00
21403;DHT22;10862;51.886;17.078;2024-03-08T09:54:01;10.40;1.00
21403;DHT22;10862;51.886;17.078;2024-03-08T09:56:32;10.20;8.40
21403;DHT22;10862;51.886;17.078;2024-03-08T09:58:58;9.90;99.90
21403;DHT22;10862;51.886;17.078;2024-03-08T10:01:42;10.70;46.50
21403;DHT22;10862;51.886;17.078;2024-03-08T10:04:07;10.20;99.90
21403;DHT22;10862;51.886;17.078;2024-03-08T10:06:35;10.40;1.00
21403;DHT22;10862;51.886;17.078;2024-03-08T10:09:01;9.30;1.00
21403;DHT22;10862;51.886;17.078;2024-03-08T10:11:27;9.50;1.00
21403;DHT22;10862;51.886;17.078;2024-03-08T10:13:53;9.50;1.00
21403;DHT22;10862;51.886;17.078;2024-03-08T10:16:19;9.50;1.00
21403;DHT22;10862;51.886;17.078;2024-03-08T10:18:45;9.80;1.00
21403;DHT22;10862;51.886;17.078;2024-03-08T10:21:11;9.70;1.00
21403;DHT22;10862;51.886;17.078;2024-03-08T10:23:37;10.60;1.00
21403;DHT22;10862;51.886;17.078;2024-03-08T10:26:13;11.00;99.90
21403;DHT22;10862;51.886;17.078;2024-03-08T10:28:45;11.80;99.90
21403;DHT22;10862;51.886;17.078;2024-03-08T10:31:13;11.90;99.90
21403;DHT22;10862;51.886;17.078;2024-03-08T10:33:40;12.10;1.00
21403;DHT22;10862;51.886;17.078;2024-03-08T10:36:07;12.10;1.00
21403;DHT22;10862;51.886;17.078;2024-03-08T10:38:36;11.50;99.90
21403;DHT22;10862;51.886;17.078;2024-03-08T10:41:03;11.50;99.90
21403;DHT22;10862;51.886;17.078;2024-03-08T10:43:43;11.70;99.90
21403;DHT22;10862;51.886;17.078;2024-03-08T10:46:30;11.80;1.00
21403;DHT22;10862;51.886;17.078;2024-03-08T10:49:00;11.90;1.00
21403;DHT22;10862;51.886;17.078;2024-03-08T10:51:30;12.10;1.00
21403;DHT22;10862;51.886;17.078;2024-03-08T10:53:57;12.00;84.30
21403;DHT22;10862;51.886;17.078;2024-03-08T10:56:25;11.40;1.00
21403;DHT22;10862;51.886;17.078;2024-03-08T10:58:54;11.40;10.80
21403;DHT22;10862;51.886;17.078;2024-03-08T11:01:19;10.60;1.00
21403;DHT22;10862;51.886;17.078;2024-03-08T11:03:46;10.90;99.90
21403;DHT22;10862;51.886;17.078;2024-03-08T11:06:15;11.40;99.90
21403;DHT22;10862;51.886;17.078;2024-03-08T11:08:41;11.00;43.70
21403;DHT22;10862;51.886;17.078;2024-03-08T11:11:24;12.10;99.90
21403;DHT22;10862;51.886;17.078;2024-03-08T11:13:56;12.60;99.90
21403;DHT22;10862;51.886;17.078;2024-03-08T11:21:36;12.80;90.30
21403;DHT22;10862;51.886;17.078;2024-03-08T11:24:12;11.90;99.90
21403;DHT22;10862;51.886;17.078;2024-03-08T11:26:39;12.30;99.90
21403;DHT22;10862;51.886;17.078;2024-03-08T11:32:09;12.70;99.90
21403;DHT22;10862;51.886;17.078;2024-03-08T11:34:45;12.50;99.90
21403;DHT22;10862;51.886;17.078;2024-03-08T11:37:15;11.70;99.90
21403;DHT22;10862;51.886;17.078;2024-03-08T11:39:55;12.00;99.90
21403;DHT22;10862;51.886;17.078;2024-03-08T11:42:24;11.80;99.90
21403;DHT22;10862;51.886;17.078;2024-03-08T11:44:52;11.90;1.00
21403;DHT22;10862;51.886;17.078;2024-03-08T11:47:18;12.20;1.00
21403;DHT22;10862;51.886;17.078;2024-03-08T11:49:44;12.80;1.00
21403;DHT22;10862;51.886;17.078;2024-03-08T11:52:14;12.30;1.00
21403;DHT22;10862;51.886;17.078;2024-03-08T11:54:52;11.10;1.00
21403;DHT22;10862;51.886;17.078;2024-03-08T11:57:23;11.30;1.00
21403;DHT22;10862;51.886;17.078;2024-03-08T11:59:53;11.10;1.00
21403;DHT22;10862;51.886;17.078;2024-03-08T12:02:18;11.00;1.00
21403;DHT22;10862;51.886;17.078;2024-03-08T12:04:45;10.70;1.00
21403;DHT22;10862;51.886;17.078;2024-03-08T12:07:13;11.00;1.00
21403;DHT22;10862;51.886;17.078;2024-03-08T12:09:42;12.00;1.00
21403;DHT22;10862;51.886;17.078;2024-03-08T12:12:12;11.70;1.00
21403;DHT22;10862;51.886;17.078;2024-03-08T12:14:38;12.10;1.00
21403;DHT22;10862;51.886;17.078;2024-03-08T12:17:04;11.90;1.00
21403;DHT22;10862;51.886;17.078;2024-03-08T12:19:30;10.70;1.00
21403;DHT22;10862;51.886;17.078;2024-03-08T12:21:56;9.50;1.00
21403;DHT22;10862;51.886;17.078;2024-03-08T12:24:22;8.80;1.00
21403;DHT22;10862;51.886;17.078;2024-03-08T12:26:48;8.30;1.00
21403;DHT22;10862;51.886;17.078;2024-03-08T12:29:18;8.30;1.00
21403;DHT22;10862;51.886;17.078;2024-03-08T12:31:46;8.00;1.00
21403;DHT22;10862;51.886;17.078;2024-03-08T12:34:12;8.20;1.00
21403;DHT22;10862;51.886;17.078;2024-03-08T12:36:45;8.20;99.90
21403;DHT22;10862;51.886;17.078;2024-03-08T12:39:13;8.20;1.00
21403;DHT22;10862;51.886;17.078;2024-03-08T12:41:41;8.30;99.90
21403;DHT22;10862;51.886;17.078;2024-03-08T12:44:07;8.30;1.00
21403;DHT22;10862;51.886;17.078;2024-03-08T12:46:37;8.20;99.90
21403;DHT22;10862;51.886;17.078;2024-03-08T12:49:08;8.30;99.90
21403;DHT22;10862;51.886;17.078;2024-03-08T12:51:35;8.20;99.90
21403;DHT22;10862;51.886;17.078;2024-03-08T12:54:01;8.10;99.90
21403;DHT22;10862;51.886;17.078;2024-03-08T12:56:31;8.20;99.90
21403;DHT22;10862;51.886;17.078;2024-03-08T12:58:59;8.30;99.90
21403;DHT22;10862;51.886;17.078;2024-03-08T13:01:25;8.40;99.90
21403;DHT22;10862;51.886;17.078;2024-03-08T13:03:52;8.60;99.90
21403;DHT22;10862;51.886;17.078;2024-03-08T13:06:18;8.60;99.90
21403;DHT22;10862;51.886;17.078;2024-03-08T13:08:47;8.70;99.90
21403;DHT22;10862;51.886;17.078;2024-03-08T13:11:13;8.50;99.90
21403;DHT22;10862;51.886;17.078;2024-03-08T13:13:40;8.30;99.90
21403;DHT22;10862;51.886;17.078;2024-03-08T13:16:06;8.30;99.90
21403;DHT22;10862;51.886;17.078;2024-03-08T13:18:37;8.40;11.10
21403;DHT22;10862;51.886;17.078;2024-03-08T13:21:03;8.60;59.30
21403;DHT22;10862;51.886;17.078;2024-03-08T13:23:40;8.80;1.00
21403;DHT22;10862;51.886;17.078;2024-03-08T13:26:10;8.40;1.00
21403;DHT22;10862;51.886;17.078;2024-03-08T13:28:48;8.60;1.00
21403;DHT22;10862;51.886;17.078;2024-03-08T13:31:19;8.40;1.00
21403;DHT22;10862;51.886;17.078;2024-03-08T13:33:45;8.20;1.00
21403;DHT22;10862;51.886;17.078;2024-03-08T13:36:13;8.40;99.90
21403;DHT22;10862;51.886;17.078;2024-03-08T13:38:45;8.40;1.00
21403;DHT22;10862;51.886;17.078;2024-03-08T13:41:11;8.60;22.60
21403;DHT22;10862;51.886;17.078;2024-03-08T13:43:38;8.60;1.00
21403;DHT22;10862;51.886;17.078;2024-03-08T13:46:05;8.40;1.00
21403;DHT22;10862;51.886;17.078;2024-03-08T13:48:32;8.30;1.00
21403;DHT22;10862;51.886;17.078;2024-03-08T13:50:58;8.40;1.00
21403;DHT22;10862;51.886;17.078;2024-03-08T13:53:23;8.30;8.80
21403;DHT22;10862;51.886;17.078;2024-03-08T13:55:49;8.30;1.00
21403;DHT22;10862;51.886;17.078;2024-03-08T13:58:16;8.30;1.00
21403;DHT22;10862;51.886;17.078;2024-03-08T14:00:41;8.90;99.90
21403;DHT22;10862;51.886;17.078;2024-03-08T14:03:09;9.90;1.00
21403;DHT22;10862;51.886;17.078;2024-03-08T14:05:38;11.40;1.00
21403;DHT22;10862;51.886;17.078;2024-03-08T14:08:08;11.40;99.90
21403;DHT22;10862;51.886;17.078;2024-03-08T14:10:34;11.70;99.90
21403;DHT22;10862;51.886;17.078;2024-03-08T14:13:00;11.90;99.90
21403;DHT22;10862;51.886;17.078;2024-03-08T14:15:28;11.50;99.90
21403;DHT22;10862;51.886;17.078;2024-03-08T14:17:54;11.60;1.00
21403;DHT22;10862;51.886;17.078;2024-03-08T14:20:21;11.80;1.00
21403;DHT22;10862;51.886;17.078;2024-03-08T14:22:53;12.10;1.00
21403;DHT22;10862;51.886;17.078;2024-03-08T14:25:20;11.60;1.00
21403;DHT22;10862;51.886;17.078;2024-03-08T14:27:52;11.40;1.00
21403;DHT22;10862;51.886;17.078;2024-03-08T14:30:28;11.40;1.00
21403;DHT22;10862;51.886;17.078;2024-03-08T14:33:07;11.20;1.00
21403;DHT22;10862;51.886;17.078;2024-03-08T14:35:36;11.40;1.00
21403;DHT22;10862;51.886;17.078;2024-03-08T14:38:02;11.40;1.00
21403;DHT22;10862;51.886;17.078;2024-03-08T14:40:28;10.80;1.00
21403;DHT22;10862;51.886;17.078;2024-03-08T14:42:55;11.10;1.00
21403;DHT22;10862;51.886;17.078;2024-03-08T14:45:21;11.10;1.00
21403;DHT22;10862;51.886;17.078;2024-03-08T14:47:49;10.80;1.00
21403;DHT22;10862;51.886;17.078;2024-03-08T14:50:19;11.00;1.00
21403;DHT22;10862;51.886;17.078;2024-03-08T14:52:46;11.10;1.00
21403;DHT22;10862;51.886;17.078;2024-03-08T14:55:15;11.30;1.00
21403;DHT22;10862;51.886;17.078;2024-03-08T14:57:41;11.40;1.00
21403;DHT22;10862;51.886;17.078;2024-03-08T15:00:08;11.40;1.00
21403;DHT22;10862;51.886;17.078;2024-03-08T15:02:42;10.90;1.00
21403;DHT22;10862;51.886;17.078;2024-03-08T15:05:07;10.90;1.00
21403;DHT22;10862;51.886;17.078;2024-03-08T15:07:39;10.90;1.00
21403;DHT22;10862;51.886;17.078;2024-03-08T15:10:08;11.00;1.00
21403;DHT22;10862;51.886;17.078;2024-03-08T15:12:38;10.90;1.00
21403;DHT22;10862;51.886;17.078;2024-03-08T15:15:08;10.80;1.00
21403;DHT22;10862;51.886;17.078;2024-03-08T15:17:35;11.00;1.00
21403;DHT22;10862;51.886;17.078;2024-03-08T15:20:02;10.70;1.00
21403;DHT22;10862;51.886;17.078;2024-03-08T15:22:28;10.90;1.00
21403;DHT22;10862;51.886;17.078;2024-03-08T15:24:54;10.80;1.00
21403;DHT22;10862;51.886;17.078;2024-03-08T15:27:19;10.30;1.00
21403;DHT22;10862;51.886;17.078;2024-03-08T15:29:45;10.30;1.00
21403;DHT22;10862;51.886;17.078;2024-03-08T15:32:14;10.50;1.00
21403;DHT22;10862;51.886;17.078;2024-03-08T15:34:45;10.30;1.00
21403;DHT22;10862;51.886;17.078;2024-03-08T15:37:11;10.40;1.00
21403;DHT22;10862;51.886;17.078;2024-03-08T15:39:42;10.00;1.00